Viroqua, WI

9:09 AM CDT on August 31, 2015 (GMT -0500)
Faith Farms Viroqua | | Change Station
CLOSE
Current Station
Personal Weather Station
Location: Viroqua, WI
Elevation: 1217 ft
Nearby Weather Stations
Active Advisory: Special Statement

Elev 1217 ft 43.61 °N, 90.98 °W | Updated 17 seconds ago

Overcast
Overcast
65.6 °F
Feels Like 65.6 °F
N
0.0
Wind Variable Wind from NW
Gusts 0.0 mph

Today
High -- | Low -- °F
--% Chance of Precip.
Yesterday
High -- | Low -- °F
Precip. -- in
6:25 AM 7:41 PM
Waning Gibbous, 95% visible
Pressure 30.03 in
Visibility 10.0 miles
Clouds Overcast 800 ft
Dew Point 65 °F
Humidity 98%
Rainfall 0.00 in
Snow Depth Not available.
UV 0 out of 12
Pollen 10.30 out of 12
Air Quality Not available.
Flu Activity Not available.
METAR KCMY 311315Z AUTO 00000KT 10SM OVC008 17/16 A3003 RMK AO2 T01740160
Pressure 30.03 in
Visibility 10.0 miles
Clouds Overcast 800 ft
Dew Point 65 °F
Humidity 98%
Rainfall 0.00 in
Snow Depth Not available.
UV 0 out of 12
Pollen 10.30 out of 12
Air Quality Not available.
Flu Activity Not available.
METAR KCMY 311315Z AUTO 00000KT 10SM OVC008 17/16 A3003 RMK AO2 T01740160

10-Day Weather Forecast

×

Almanac

Astronomy

Aug. 31, 2015 Rise Set
Actual Time
Civil Twilight
Nautical Twilight
Astronomical Twilight
Moon
Length of Visible Light
Length of Day
Tomorrow will be .
, % of the Moon is Illuminated

Today's Extremes

State Highs State Lows

Community

WunderPhotos

Upload Photos

1,851,243 photos uploaded!

WunderBlogs® & News

Nearby

Air Quality

  Air Quality AQ Index Pollutant
Not available.

Snow Depth

Station Depth Elevation

Earthquake Activity

City Distance Mag. Time & Date
Minimum magnitude displayed is 2.5.

Coastal Water Temperatures

Place Temperature

Stations

Nearby Weather Stations

Station Location Temp. Windchill Dew Point Humidity Wind Precip. Elev Updated Type
                   
Special Statement
Statement as of 9:03 AM CDT on August 31, 2015

... Patchy dense fog lingers but visibilities were improving...

Visibilities in the fog across much of the area were improving as
of 9 am. However visibilities remained below 1/2 mile in a few
locations... especially in the lower Wisconsin River Valley and on
some ridge tops and other higher elevation locations.

The fog will continue to lift and dissipate through 10 am. If
traveling this morning... remain alert for reduced and changing
visibilities due to the lingering fog.

Rrs


903 am CDT Mon Aug 31 2015

... Patchy dense fog lingers but visibilities were improving...

Visibilities in the fog across much of the area were improving as
of 9 am. However visibilities remained below 1/2 mile in a few
locations... especially in the lower Wisconsin River Valley and on
some ridge tops and other higher elevation locations.

The fog will continue to lift and dissipate through 10 am. If
traveling this morning... remain alert for reduced and changing
visibilities due to the lingering fog.

Rrs